UAL52 GVAC-GBYD
Flight info
| Callsign | UAL52 |
|---|---|
| Flight time | N/A |
| Altitude | 35000 |
| Route | IRPOT1A POLMO DCT LUMPO UR976 ANITI UB600 BJ |
| Aircraft | B738/M-SDE2E3FGHIRWXY/LB1 |
Departure
| Time | 2026-04-22 00:19 |
|---|---|
| Airport | Amílcar Cabral International Airport (GVAC) |
Arrival
| Time | N/A |
|---|---|
| Airport | Banjul International Airport (GBYD) |
| Time | Latitude | Longitude | Altitude | Speed | Heading |
|---|---|---|---|---|---|
| 2026-04-22 00:05 | 16.73366 | -22.94494 | 185 ft | 0 kts | 89° |
| 2026-04-22 00:11 | 16.73365 | -22.94509 | 186 ft | 3 kts | 89° |
| 2026-04-22 00:12 | 16.73365 | -22.94530 | 186 ft | 2 kts | 92° |
| 2026-04-22 00:12 | 16.73367 | -22.94543 | 186 ft | 1 kts | 105° |
| 2026-04-22 00:12 | 16.73371 | -22.94553 | 186 ft | 1 kts | 124° |
| 2026-04-22 00:12 | 16.73376 | -22.94560 | 186 ft | 1 kts | 140° |
| 2026-04-22 00:13 | 16.73383 | -22.94565 | 186 ft | 1 kts | 155° |
| 2026-04-22 00:13 | 16.73391 | -22.94568 | 186 ft | 1 kts | 171° |
| 2026-04-22 00:13 | 16.73399 | -22.94569 | 186 ft | 1 kts | 179° |
| 2026-04-22 00:13 | 16.73400 | -22.94569 | 186 ft | 0 kts | 180° |
| 2026-04-22 00:16 | 16.73391 | -22.94570 | 186 ft | 4 kts | 191° |
| 2026-04-22 00:16 | 16.73357 | -22.94581 | 187 ft | 9 kts | 197° |
| 2026-04-22 00:17 | 16.73257 | -22.94593 | 189 ft | 17 kts | 179° |
| 2026-04-22 00:17 | 16.73128 | -22.94593 | 189 ft | 18 kts | 187° |
| 2026-04-22 00:17 | 16.72998 | -22.94690 | 189 ft | 27 kts | 186° |
| 2026-04-22 00:17 | 16.72768 | -22.94689 | 186 ft | 35 kts | 179° |
| 2026-04-22 00:18 | 16.72527 | -22.94686 | 183 ft | 32 kts | 179° |
| 2026-04-22 00:18 | 16.72412 | -22.94743 | 181 ft | 15 kts | 257° |
| 2026-04-22 00:18 | 16.72409 | -22.94763 | 180 ft | 0 kts | 265° |
| 2026-04-22 00:18 | 16.72408 | -22.94785 | 180 ft | 10 kts | 265° |
| 2026-04-22 00:19 | 16.72473 | -22.94883 | 180 ft | 34 kts | 353° |
| 2026-04-22 00:19 | 16.72983 | -22.94889 | 188 ft | 114 kts | 359° |
| 2026-04-22 00:19 | 16.74037 | -22.94900 | 273 ft | 177 kts | 359° |
| 2026-04-22 00:19 | 16.75300 | -22.94970 | 980 ft | 191 kts | 359° |
| 2026-04-22 00:20 | 16.76711 | -22.94991 | 1655 ft | 216 kts | 1° |
| 2026-04-22 00:20 | 16.78239 | -22.94993 | 2410 ft | 230 kts | 1° |
| 2026-04-22 00:20 | 16.79805 | -22.94990 | 3718 ft | 230 kts | 0° |
| 2026-04-22 00:20 | 16.81391 | -22.94985 | 4914 ft | 237 kts | 358° |
| 2026-04-22 00:21 | 16.83083 | -22.94985 | 5812 ft | 257 kts | 357° |
| 2026-04-22 00:21 | 16.84925 | -22.94761 | 6595 ft | 285 kts | 17° |
| 2026-04-22 00:21 | 16.86666 | -22.93605 | 7536 ft | 306 kts | 45° |
| 2026-04-22 00:21 | 16.87855 | -22.91797 | 7966 ft | 311 kts | 67° |
| 2026-04-22 00:22 | 16.88286 | -22.89616 | 8009 ft | 311 kts | 92° |
| 2026-04-22 00:22 | 16.87821 | -22.87442 | 8013 ft | 304 kts | 116° |
| 2026-04-22 00:22 | 16.87262 | -22.85311 | 8010 ft | 307 kts | 94° |
| 2026-04-22 00:22 | 16.87194 | -22.83099 | 8004 ft | 307 kts | 91° |
| 2026-04-22 00:23 | 16.87186 | -22.80866 | 8002 ft | 306 kts | 91° |
| 2026-04-22 00:23 | 16.87194 | -22.78628 | 8003 ft | 308 kts | 90° |
| 2026-04-22 00:23 | 16.87077 | -22.76406 | 7997 ft | 307 kts | 107° |
| 2026-04-22 00:23 | 16.86159 | -22.74400 | 8273 ft | 318 kts | 127° |
| 2026-04-22 00:24 | 16.84924 | -22.72508 | 9581 ft | 315 kts | 128° |
| 2026-04-22 00:24 | 16.83707 | -22.70686 | 10952 ft | 308 kts | 129° |
| 2026-04-22 00:24 | 16.82453 | -22.68836 | 11731 ft | 322 kts | 128° |
| 2026-04-22 00:24 | 16.81136 | -22.66884 | 12363 ft | 341 kts | 128° |
| 2026-04-22 00:25 | 16.79730 | -22.64803 | 12970 ft | 360 kts | 128° |
| 2026-04-22 00:25 | 16.78269 | -22.62641 | 13544 ft | 378 kts | 128° |
| 2026-04-22 00:25 | 16.76731 | -22.60361 | 14347 ft | 388 kts | 128° |
| 2026-04-22 00:25 | 16.75190 | -22.58080 | 15451 ft | 387 kts | 128° |
| 2026-04-22 00:26 | 16.73624 | -22.55767 | 16191 ft | 396 kts | 128° |
| 2026-04-22 00:26 | 16.72025 | -22.53402 | 16995 ft | 402 kts | 128° |
| 2026-04-22 00:26 | 16.70424 | -22.51036 | 17828 ft | 406 kts | 128° |
| 2026-04-22 00:26 | 16.68791 | -22.48624 | 18461 ft | 414 kts | 127° |
| 2026-04-22 00:27 | 16.67110 | -22.46141 | 19116 ft | 420 kts | 127° |
| 2026-04-22 00:27 | 16.65429 | -22.43665 | 19725 ft | 426 kts | 127° |
| 2026-04-22 00:27 | 16.63701 | -22.41118 | 20311 ft | 432 kts | 127° |
| 2026-04-22 00:27 | 16.61956 | -22.38541 | 20830 ft | 439 kts | 127° |
| 2026-04-22 00:28 | 16.60180 | -22.35926 | 21403 ft | 443 kts | 126° |
| 2026-04-22 00:28 | 16.58413 | -22.33318 | 21869 ft | 449 kts | 127° |
| 2026-04-22 00:28 | 16.56591 | -22.30634 | 22301 ft | 455 kts | 127° |
| 2026-04-22 00:28 | 16.54843 | -22.27857 | 22740 ft | 461 kts | 116° |
| 2026-04-22 00:29 | 16.53523 | -22.24794 | 23210 ft | 465 kts | 114° |
| 2026-04-22 00:29 | 16.52220 | -22.21734 | 23698 ft | 469 kts | 114° |
| 2026-04-22 00:29 | 16.50888 | -22.18612 | 24137 ft | 475 kts | 114° |
| 2026-04-22 00:29 | 16.49528 | -22.15445 | 24588 ft | 479 kts | 114° |
| 2026-04-22 00:30 | 16.48183 | -22.12316 | 25174 ft | 480 kts | 114° |
| 2026-04-22 00:30 | 16.46811 | -22.09123 | 25554 ft | 486 kts | 114° |
| 2026-04-22 00:30 | 16.45413 | -22.05874 | 25938 ft | 491 kts | 114° |
| 2026-04-22 00:30 | 16.44033 | -22.02664 | 26444 ft | 493 kts | 114° |
| 2026-04-22 00:31 | 16.42621 | -21.99384 | 26806 ft | 498 kts | 114° |
| 2026-04-22 00:31 | 16.41203 | -21.96101 | 27243 ft | 500 kts | 114° |
| 2026-04-22 00:31 | 16.39767 | -21.92759 | 27623 ft | 504 kts | 114° |
| 2026-04-22 00:31 | 16.38333 | -21.89436 | 27914 ft | 510 kts | 114° |
| 2026-04-22 00:32 | 16.36875 | -21.86055 | 28450 ft | 509 kts | 114° |
| 2026-04-22 00:32 | 16.35446 | -21.82737 | 29009 ft | 508 kts | 114° |
| 2026-04-22 00:32 | 16.33991 | -21.79365 | 29417 ft | 509 kts | 114° |
| 2026-04-22 00:32 | 16.32563 | -21.76054 | 29973 ft | 507 kts | 114° |
| 2026-04-22 00:33 | 16.31118 | -21.72704 | 30486 ft | 505 kts | 115° |
| 2026-04-22 00:33 | 16.29669 | -21.69362 | 30953 ft | 505 kts | 115° |
| 2026-04-22 00:33 | 16.28245 | -21.66067 | 31356 ft | 505 kts | 115° |
| 2026-04-22 00:33 | 16.26870 | -21.62677 | 31652 ft | 509 kts | 111° |
| 2026-04-22 00:34 | 16.25665 | -21.59267 | 32058 ft | 508 kts | 111° |
| 2026-04-22 00:34 | 16.24442 | -21.55812 | 32637 ft | 503 kts | 111° |
| 2026-04-22 00:34 | 16.23224 | -21.52407 | 33062 ft | 504 kts | 112° |
| 2026-04-22 00:34 | 16.22003 | -21.48989 | 33391 ft | 505 kts | 112° |
| 2026-04-22 00:35 | 16.20788 | -21.45598 | 33960 ft | 502 kts | 112° |
| 2026-04-22 00:35 | 16.19583 | -21.42228 | 34736 ft | 493 kts | 113° |
| 2026-04-22 00:35 | 16.18400 | -21.38939 | 34972 ft | 490 kts | 113° |
| 2026-04-22 00:36 | 16.15974 | -21.32198 | 34986 ft | 507 kts | 113° |
| 2026-04-22 00:36 | 16.13473 | -21.25223 | 34990 ft | 523 kts | 113° |
| 2026-04-22 00:37 | 16.10895 | -21.18057 | 34984 ft | 533 kts | 113° |
| 2026-04-22 00:37 | 16.08315 | -21.10891 | 34985 ft | 530 kts | 113° |
| 2026-04-22 00:38 | 16.05746 | -21.03772 | 34989 ft | 528 kts | 113° |
| 2026-04-22 00:38 | 16.03151 | -20.96588 | 34986 ft | 529 kts | 113° |
| 2026-04-22 00:39 | 16.00581 | -20.89471 | 34985 ft | 529 kts | 114° |
| 2026-04-22 00:39 | 15.98004 | -20.82347 | 34985 ft | 529 kts | 113° |
| 2026-04-22 00:40 | 15.95406 | -20.75172 | 34990 ft | 531 kts | 113° |
| 2026-04-22 00:40 | 15.92806 | -20.68006 | 34990 ft | 530 kts | 113° |
| 2026-04-22 00:41 | 15.90214 | -20.60873 | 34988 ft | 531 kts | 113° |
| 2026-04-22 00:41 | 15.87621 | -20.53728 | 34984 ft | 530 kts | 113° |
| 2026-04-22 00:42 | 15.85015 | -20.46573 | 34983 ft | 531 kts | 113° |
| 2026-04-22 00:42 | 15.82412 | -20.39432 | 34982 ft | 530 kts | 113° |
| 2026-04-22 00:43 | 15.79812 | -20.32306 | 34960 ft | 529 kts | 113° |
| 2026-04-22 00:43 | 15.77197 | -20.25143 | 34963 ft | 528 kts | 113° |
| 2026-04-22 00:44 | 15.74608 | -20.18053 | 34968 ft | 530 kts | 113° |
| 2026-04-22 00:44 | 15.71982 | -20.10883 | 34964 ft | 530 kts | 113° |
| 2026-04-22 00:45 | 15.69383 | -20.03792 | 34963 ft | 529 kts | 113° |
| 2026-04-22 00:45 | 15.66778 | -19.96658 | 34965 ft | 529 kts | 113° |
| 2026-04-22 00:46 | 15.64196 | -19.89540 | 34966 ft | 531 kts | 113° |
| 2026-04-22 00:46 | 15.61586 | -19.82352 | 34968 ft | 530 kts | 113° |
| 2026-04-22 00:47 | 15.59006 | -19.75257 | 34969 ft | 529 kts | 113° |
| 2026-04-22 00:47 | 15.56412 | -19.68133 | 34969 ft | 529 kts | 113° |
| 2026-04-22 00:48 | 15.53818 | -19.61021 | 34973 ft | 529 kts | 113° |
| 2026-04-22 00:48 | 15.51206 | -19.53858 | 34978 ft | 529 kts | 113° |
| 2026-04-22 00:49 | 15.48601 | -19.46740 | 34977 ft | 529 kts | 113° |
| 2026-04-22 00:49 | 15.45998 | -19.39612 | 34979 ft | 531 kts | 113° |
| 2026-04-22 00:50 | 15.43399 | -19.32510 | 34959 ft | 529 kts | 114° |
| 2026-04-22 00:50 | 15.40780 | -19.25395 | 34965 ft | 530 kts | 113° |
| 2026-04-22 00:51 | 15.38177 | -19.18294 | 34965 ft | 529 kts | 113° |
| 2026-04-22 00:51 | 15.35570 | -19.11184 | 34963 ft | 529 kts | 113° |
| 2026-04-22 00:52 | 15.32943 | -19.04053 | 34964 ft | 528 kts | 113° |
| 2026-04-22 00:52 | 15.30335 | -18.96978 | 34967 ft | 528 kts | 113° |
| 2026-04-22 00:53 | 15.27729 | -18.89903 | 34968 ft | 527 kts | 113° |
| 2026-04-22 00:53 | 15.25124 | -18.82854 | 34971 ft | 528 kts | 113° |
| 2026-04-22 00:54 | 15.22493 | -18.75734 | 34962 ft | 528 kts | 113° |
| 2026-04-22 00:54 | 15.19870 | -18.68648 | 34950 ft | 528 kts | 113° |
| 2026-04-22 00:55 | 15.17264 | -18.61597 | 34954 ft | 527 kts | 113° |
| 2026-04-22 00:55 | 15.13327 | -18.50979 | 34951 ft | 527 kts | 113° |
| 2026-04-22 00:56 | 15.10696 | -18.43903 | 34952 ft | 526 kts | 113° |
| 2026-04-22 00:56 | 15.08053 | -18.36799 | 34953 ft | 528 kts | 113° |
| 2026-04-22 00:57 | 15.05435 | -18.29750 | 34941 ft | 528 kts | 114° |
| 2026-04-22 00:57 | 15.02807 | -18.22700 | 34944 ft | 526 kts | 113° |
| 2026-04-22 00:58 | 15.00168 | -18.15619 | 34955 ft | 526 kts | 114° |
| 2026-04-22 00:58 | 14.97539 | -18.08571 | 34963 ft | 527 kts | 114° |
| 2026-04-22 00:59 | 14.94896 | -18.01510 | 34962 ft | 528 kts | 114° |
| 2026-04-22 00:59 | 14.93583 | -17.98006 | 34951 ft | 515 kts | 113° |
| 2026-04-22 00:59 | 14.92319 | -17.94653 | 34954 ft | 493 kts | 114° |
| 2026-04-22 01:00 | 14.91105 | -17.91435 | 34938 ft | 479 kts | 114° |
| 2026-04-22 01:00 | 14.89888 | -17.88214 | 34968 ft | 482 kts | 114° |
| 2026-04-22 01:00 | 14.87420 | -17.81669 | 34966 ft | 495 kts | 114° |
| 2026-04-22 01:01 | 14.84928 | -17.75075 | 34834 ft | 493 kts | 114° |
| 2026-04-22 01:01 | 14.83686 | -17.71786 | 34335 ft | 496 kts | 114° |
| 2026-04-22 01:01 | 14.82418 | -17.68442 | 33816 ft | 497 kts | 113° |
| 2026-04-22 01:02 | 14.81171 | -17.65149 | 33310 ft | 498 kts | 113° |
| 2026-04-22 01:02 | 14.79907 | -17.61819 | 32817 ft | 499 kts | 113° |
| 2026-04-22 01:02 | 14.78644 | -17.58488 | 32356 ft | 501 kts | 112° |
| 2026-04-22 01:02 | 14.77383 | -17.55148 | 31894 ft | 502 kts | 112° |
| 2026-04-22 01:03 | 14.76097 | -17.51761 | 31410 ft | 502 kts | 111° |
| 2026-04-22 01:03 | 14.74531 | -17.48576 | 30923 ft | 500 kts | 127° |
| 2026-04-22 01:03 | 14.72239 | -17.45929 | 30426 ft | 494 kts | 143° |
| 2026-04-22 01:03 | 14.69507 | -17.43786 | 29940 ft | 494 kts | 147° |
| 2026-04-22 01:04 | 14.66743 | -17.41696 | 29435 ft | 494 kts | 147° |
| 2026-04-22 01:04 | 14.63956 | -17.39606 | 28917 ft | 495 kts | 147° |
| 2026-04-22 01:04 | 14.61178 | -17.37522 | 28412 ft | 495 kts | 147° |
| 2026-04-22 01:04 | 14.58393 | -17.35435 | 27914 ft | 496 kts | 147° |
| 2026-04-22 01:05 | 14.55617 | -17.33351 | 27386 ft | 485 kts | 147° |
| 2026-04-22 01:05 | 14.52905 | -17.31324 | 26878 ft | 473 kts | 147° |
| 2026-04-22 01:05 | 14.50285 | -17.29359 | 26395 ft | 463 kts | 147° |
| 2026-04-22 01:05 | 14.47701 | -17.27427 | 25918 ft | 452 kts | 147° |
| 2026-04-22 01:06 | 14.45208 | -17.25564 | 25469 ft | 442 kts | 147° |